createdAt,value
2023-02-04T00:01:38.493Z,36.85
2023-02-04T00:08:12.074Z,41.35
2023-02-04T00:14:13.830Z,38.75
2023-02-04T00:20:15.667Z,32.83
2023-02-04T00:26:18.062Z,29.33
2023-02-04T00:32:19.925Z,32.10
2023-02-04T00:38:22.973Z,29.67
2023-02-04T00:44:24.737Z,36.42
2023-02-04T00:50:26.575Z,34.42
2023-02-04T00:56:28.285Z,43.75
2023-02-04T01:02:30.005Z,28.17
2023-02-04T01:08:32.430Z,35.72
2023-02-04T01:14:34.243Z,27.00
2023-02-04T01:20:36.028Z,28.35
2023-02-04T01:26:37.818Z,28.98
2023-02-04T01:32:39.667Z,33.53
2023-02-04T01:38:42.678Z,27.25
2023-02-04T01:44:44.531Z,34.38
2023-02-04T01:50:51.723Z,30.38
2023-02-04T01:56:55.472Z,30.58
2023-02-04T02:03:00.260Z,28.60
2023-02-04T02:09:02.778Z,32.25
2023-02-04T02:15:06.171Z,33.72
2023-02-04T02:21:11.957Z,27.05
2023-02-04T02:27:13.752Z,20.02
2023-02-04T02:33:19.066Z,21.50
2023-02-04T02:39:22.057Z,21.52
2023-02-04T02:45:27.544Z,14.27
2023-02-04T02:51:29.383Z,15.18
2023-02-04T02:57:32.285Z,21.38
2023-02-04T03:03:44.372Z,7.65
2023-02-04T03:09:49.655Z,2.13
2023-02-04T03:15:52.998Z,8.48
2023-02-04T03:22:00.010Z,2.13
2023-02-04T03:28:02.513Z,4.63
2023-02-04T03:41:01.752Z,4.35
2023-02-04T03:47:03.813Z,7.10
2023-02-04T03:53:06.392Z,1.52
2023-02-04T03:59:09.134Z,3.65
2023-02-04T04:05:11.568Z,4.20
2023-02-04T04:11:37.972Z,6.72
2023-02-04T04:17:47.583Z,4.18
2023-02-04T04:24:04.290Z,4.30
2023-02-04T04:30:36.632Z,4.82
2023-02-04T04:37:10.390Z,3.55
2023-02-04T04:43:23.116Z,5.32
2023-02-04T04:49:38.987Z,5.57
2023-02-04T04:56:00.522Z,6.10
2023-02-04T05:02:02.834Z,5.20
2023-02-04T05:08:10.000Z,4.38
2023-02-04T05:14:29.276Z,6.22
2023-02-04T05:20:35.594Z,8.20
2023-02-04T05:26:47.604Z,12.35
2023-02-04T05:32:50.087Z,7.43
2023-02-04T05:38:58.028Z,4.65
2023-02-04T05:45:02.377Z,7.60
2023-02-04T05:51:04.644Z,11.07
2023-02-04T05:57:17.285Z,5.05
2023-02-04T06:03:22.197Z,5.82
2023-02-04T06:09:30.619Z,6.47
2023-02-04T06:15:37.747Z,10.60
2023-02-04T06:21:45.056Z,9.57
2023-02-04T06:27:50.322Z,7.90
2023-02-04T06:33:54.852Z,15.75
2023-02-04T06:39:57.597Z,13.68
2023-02-04T06:45:59.740Z,21.10
2023-02-04T06:52:01.532Z,13.32
2023-02-04T06:58:03.394Z,14.32
2023-02-04T07:04:05.220Z,16.20
2023-02-04T07:10:07.085Z,19.08
2023-02-04T07:16:08.950Z,15.77
2023-02-04T07:22:10.638Z,14.18
2023-02-04T07:28:12.492Z,14.38
2023-02-04T07:34:14.396Z,15.75
2023-02-04T07:40:16.369Z,17.65
2023-02-04T07:46:18.430Z,25.45
2023-02-04T07:52:20.166Z,14.35
2023-02-04T07:58:22.808Z,14.85
2023-02-04T08:04:24.527Z,14.40
2023-02-04T08:10:26.207Z,15.43
2023-02-04T08:16:28.371Z,14.05
2023-02-04T08:22:31.119Z,18.35
2023-02-04T08:28:32.807Z,13.85
2023-02-04T08:34:34.486Z,12.80
2023-02-04T08:40:36.190Z,14.15
2023-02-04T08:46:37.935Z,13.52
2023-02-04T08:52:39.852Z,13.38
2023-02-04T08:58:41.542Z,14.18
2023-02-04T09:04:43.285Z,11.70
2023-02-04T09:10:44.978Z,11.23
2023-02-04T09:16:48.985Z,16.52
2023-02-04T09:22:50.716Z,11.40
2023-02-04T09:28:52.517Z,11.50
2023-02-04T09:34:54.230Z,5.95
2023-02-04T09:41:02.974Z,4.03
2023-02-04T09:47:04.754Z,3.22
2023-02-04T09:53:07.703Z,4.25
2023-02-04T09:59:18.209Z,6.40
2023-02-04T10:05:29.070Z,2.40
2023-02-04T10:11:35.248Z,3.28
2023-02-04T10:17:36.983Z,4.47
2023-02-04T10:23:39.075Z,3.03
2023-02-04T10:29:42.223Z,2.85
2023-02-04T10:35:49.536Z,4.30
2023-02-04T10:41:56.795Z,4.03
2023-02-04T10:47:58.483Z,9.45
2023-02-04T10:54:18.749Z,5.07
2023-02-04T11:00:25.464Z,2.65
2023-02-04T11:06:27.283Z,2.97
2023-02-04T11:12:42.155Z,3.03
2023-02-04T11:18:50.094Z,2.55
2023-02-04T11:24:51.944Z,4.43
2023-02-04T11:31:12.804Z,2.60
2023-02-04T11:37:35.617Z,4.07
2023-02-04T11:43:37.549Z,3.15
2023-02-04T11:49:39.304Z,1.65
2023-02-04T11:55:47.542Z,1.98
2023-02-04T12:01:49.652Z,2.50
2023-02-04T12:07:51.410Z,1.45
2023-02-04T12:13:56.376Z,2.00
2023-02-04T12:19:58.154Z,4.85
2023-02-04T12:26:00.185Z,5.03
2023-02-04T12:32:01.932Z,2.67
2023-02-04T12:38:03.960Z,2.35
2023-02-04T12:44:05.718Z,2.65
2023-02-04T12:50:08.485Z,10.77
2023-02-04T12:56:10.253Z,2.42
2023-02-04T13:02:12.252Z,1.95
2023-02-04T13:08:14.059Z,1.65
2023-02-04T13:14:15.773Z,3.25
2023-02-04T13:20:17.819Z,1.45
2023-02-04T13:26:19.580Z,4.78
2023-02-04T13:32:24.437Z,1.63
2023-02-04T13:38:26.475Z,2.13
2023-02-04T13:44:28.253Z,1.45
2023-02-04T13:50:30.300Z,3.38
2023-02-04T13:56:32.930Z,1.52
2023-02-04T14:02:35.088Z,2.20
2023-02-04T14:08:37.083Z,3.20
2023-02-04T14:14:38.792Z,2.80
2023-02-04T14:20:40.552Z,1.55
2023-02-04T14:26:42.309Z,3.17
2023-02-04T14:32:44.187Z,1.88
2023-02-04T14:38:45.910Z,3.10
2023-02-04T14:44:47.695Z,3.30
2023-02-04T14:50:49.462Z,2.00
2023-02-04T14:56:51.291Z,3.08
2023-02-04T15:02:53.347Z,1.95
2023-02-04T15:08:55.390Z,1.58
2023-02-04T15:14:57.238Z,2.28
2023-02-04T15:20:58.934Z,2.72
2023-02-04T15:27:00.773Z,2.03
2023-02-04T15:33:02.625Z,1.73
2023-02-04T15:39:04.400Z,1.98
2023-02-04T15:45:06.963Z,1.30
2023-02-04T15:51:08.703Z,2.95
2023-02-04T15:57:10.719Z,1.92
2023-02-04T16:03:12.482Z,2.00
2023-02-04T16:09:14.200Z,2.08
2023-02-04T16:15:16.068Z,2.83
2023-02-04T16:21:17.808Z,1.75
2023-02-04T16:27:19.931Z,2.40
2023-02-04T16:33:21.737Z,3.00
2023-02-04T16:39:24.357Z,1.83
2023-02-04T16:45:26.176Z,2.22
2023-02-04T16:51:29.026Z,5.60
2023-02-04T16:57:30.833Z,4.07
2023-02-04T17:03:32.636Z,2.33
2023-02-04T17:09:34.402Z,3.38
2023-02-04T17:15:36.229Z,4.28
2023-02-04T17:21:39.212Z,6.78
2023-02-04T17:27:40.957Z,2.65
2023-02-04T17:33:42.961Z,3.33
2023-02-04T17:39:44.724Z,2.63
2023-02-04T17:45:46.616Z,4.68
2023-02-04T17:51:48.372Z,2.72
2023-02-04T17:57:51.271Z,3.60
2023-02-04T18:03:53.051Z,6.75
2023-02-04T18:10:07.594Z,2.00
2023-02-04T18:16:25.173Z,2.72
2023-02-04T18:22:28.507Z,3.13
2023-02-04T18:28:34.512Z,4.88
2023-02-04T18:34:42.955Z,7.28
2023-02-04T18:40:44.666Z,5.18
2023-02-04T18:46:48.461Z,3.42
2023-02-04T18:52:50.179Z,6.10
2023-02-04T18:58:52.169Z,3.45
2023-02-04T19:05:12.138Z,7.50
2023-02-04T19:11:33.472Z,6.28
2023-02-04T19:17:36.275Z,5.13
2023-02-04T19:23:38.078Z,6.53
2023-02-04T19:29:41.472Z,5.53
2023-02-04T19:35:45.144Z,6.15
2023-02-04T19:41:49.124Z,8.70
2023-02-04T19:47:53.197Z,12.20
2023-02-04T19:54:13.750Z,30.40
2023-02-04T20:00:34.468Z,32.70
2023-02-04T20:06:36.323Z,36.33
2023-02-04T20:12:40.725Z,26.10
2023-02-04T20:18:42.478Z,28.92
2023-02-04T20:24:46.704Z,22.48
2023-02-04T20:30:50.244Z,21.30
2023-02-04T20:36:52.380Z,20.50
2023-02-04T20:43:01.591Z,19.77
2023-02-04T20:49:20.960Z,16.25
2023-02-04T20:55:22.692Z,19.55
2023-02-04T21:01:34.497Z,16.85
2023-02-04T21:07:36.270Z,10.80
2023-02-04T21:13:38.750Z,15.70
2023-02-04T21:19:40.675Z,20.48
2023-02-04T21:25:42.386Z,13.50
2023-02-04T21:31:46.428Z,8.95
2023-02-04T21:37:48.147Z,7.15
2023-02-04T21:43:50.641Z,11.43
2023-02-04T21:49:52.442Z,26.42
2023-02-04T21:55:54.223Z,45.63
2023-02-04T22:01:56.182Z,34.47
2023-02-04T22:07:59.752Z,29.40
2023-02-04T22:14:01.657Z,30.70
2023-02-04T22:20:04.220Z,23.73
2023-02-04T22:26:06.078Z,21.58
2023-02-04T22:32:07.879Z,27.80
2023-02-04T22:38:09.690Z,23.63
2023-02-04T22:44:11.494Z,22.30
2023-02-04T22:50:13.217Z,23.25
2023-02-04T22:56:15.221Z,42.28
2023-02-04T23:02:18.452Z,44.55
2023-02-04T23:08:20.608Z,40.00
2023-02-04T23:14:22.328Z,36.30
2023-02-04T23:20:24.251Z,34.03
2023-02-04T23:26:26.237Z,28.15
2023-02-04T23:32:28.693Z,21.92
2023-02-04T23:38:31.221Z,11.02
2023-02-04T23:44:33.098Z,13.77
2023-02-04T23:50:34.813Z,17.88
2023-02-04T23:56:36.612Z,22.13
